sensor_id;sensor_type;location;lat;lon;timestamp;pressure;altitude;pressure_sealevel;temperature;humidity
75157;BME280;63736;50.076;8.198;2022-12-24T00:01:50;98786.25;;;10.44;100.00
75157;BME280;63736;50.076;8.198;2022-12-24T00:04:15;98797.06;;;10.43;100.00
75157;BME280;63736;50.076;8.198;2022-12-24T00:06:41;98801.84;;;10.39;100.00
75157;BME280;63736;50.076;8.198;2022-12-24T00:09:06;98804.22;;;10.32;100.00
75157;BME280;63736;50.076;8.198;2022-12-24T00:11:31;98801.16;;;10.27;100.00
75157;BME280;63736;50.076;8.198;2022-12-24T00:13:57;98799.91;;;10.21;100.00
75157;BME280;63736;50.076;8.198;2022-12-24T00:16:22;98797.25;;;10.21;100.00
75157;BME280;63736;50.076;8.198;2022-12-24T00:18:48;98808.75;;;10.22;100.00
75157;BME280;63736;50.076;8.198;2022-12-24T00:21:14;98809.47;;;10.24;100.00
75157;BME280;63736;50.076;8.198;2022-12-24T00:23:40;98811.31;;;10.23;100.00
75157;BME280;63736;50.076;8.198;2022-12-24T00:26:05;98809.78;;;10.21;100.00
75157;BME280;63736;50.076;8.198;2022-12-24T00:28:30;98810.03;;;10.18;100.00
75157;BME280;63736;50.076;8.198;2022-12-24T00:30:56;98819.16;;;10.15;100.00
75157;BME280;63736;50.076;8.198;2022-12-24T00:33:21;98829.28;;;10.12;100.00
75157;BME280;63736;50.076;8.198;2022-12-24T00:35:49;98818.06;;;10.08;100.00
75157;BME280;63736;50.076;8.198;2022-12-24T00:38:15;98828.34;;;10.03;100.00
75157;BME280;63736;50.076;8.198;2022-12-24T00:40:40;98817.09;;;9.99;100.00
75157;BME280;63736;50.076;8.198;2022-12-24T00:43:05;98825.41;;;9.96;100.00
75157;BME280;63736;50.076;8.198;2022-12-24T00:45:31;98807.72;;;9.95;100.00
75157;BME280;63736;50.076;8.198;2022-12-24T00:47:56;98825.25;;;9.98;100.00
75157;BME280;63736;50.076;8.198;2022-12-24T00:50:21;98828.47;;;10.01;100.00
75157;BME280;63736;50.076;8.198;2022-12-24T00:52:46;98815.97;;;10.02;100.00
75157;BME280;63736;50.076;8.198;2022-12-24T00:55:12;98838.88;;;10.04;100.00
75157;BME280;63736;50.076;8.198;2022-12-24T00:57:37;98832.25;;;10.08;100.00
75157;BME280;63736;50.076;8.198;2022-12-24T01:00:03;98825.50;;;10.14;100.00
75157;BME280;63736;50.076;8.198;2022-12-24T01:02:29;98834.63;;;10.12;100.00
75157;BME280;63736;50.076;8.198;2022-12-24T01:04:54;98838.31;;;10.11;100.00
75157;BME280;63736;50.076;8.198;2022-12-24T01:07:35;98832.97;;;10.11;100.00
75157;BME280;63736;50.076;8.198;2022-12-24T01:10:00;98840.97;;;10.11;100.00
75157;BME280;63736;50.076;8.198;2022-12-24T01:12:25;98847.56;;;10.06;100.00
75157;BME280;63736;50.076;8.198;2022-12-24T01:14:51;98843.34;;;10.04;100.00
75157;BME280;63736;50.076;8.198;2022-12-24T01:17:16;98858.81;;;10.00;100.00
75157;BME280;63736;50.076;8.198;2022-12-24T01:19:41;98856.56;;;9.96;100.00
75157;BME280;63736;50.076;8.198;2022-12-24T01:22:07;98861.47;;;9.90;100.00
75157;BME280;63736;50.076;8.198;2022-12-24T01:24:32;98863.56;;;9.87;100.00
75157;BME280;63736;50.076;8.198;2022-12-24T01:26:57;98882.13;;;9.88;100.00
75157;BME280;63736;50.076;8.198;2022-12-24T01:29:22;98867.09;;;9.87;100.00
75157;BME280;63736;50.076;8.198;2022-12-24T01:31:48;98867.50;;;9.83;100.00
75157;BME280;63736;50.076;8.198;2022-12-24T01:34:13;98880.56;;;9.76;100.00
75157;BME280;63736;50.076;8.198;2022-12-24T01:36:38;98873.41;;;9.76;100.00
75157;BME280;63736;50.076;8.198;2022-12-24T01:39:04;98897.41;;;9.76;100.00
75157;BME280;63736;50.076;8.198;2022-12-24T01:41:30;98900.06;;;9.76;100.00
75157;BME280;63736;50.076;8.198;2022-12-24T01:47:03;98908.66;;;9.70;100.00
75157;BME280;63736;50.076;8.198;2022-12-24T01:49:29;98914.53;;;9.64;100.00
75157;BME280;63736;50.076;8.198;2022-12-24T01:52:00;98924.47;;;9.62;100.00
75157;BME280;63736;50.076;8.198;2022-12-24T01:54:43;98933.75;;;9.58;100.00
75157;BME280;63736;50.076;8.198;2022-12-24T01:57:17;98929.66;;;9.54;100.00
75157;BME280;63736;50.076;8.198;2022-12-24T01:59:49;98930.63;;;9.53;100.00
75157;BME280;63736;50.076;8.198;2022-12-24T02:02:16;98929.22;;;9.49;100.00
75157;BME280;63736;50.076;8.198;2022-12-24T02:08:04;98943.09;;;9.42;100.00
75157;BME280;63736;50.076;8.198;2022-12-24T02:10:29;98945.75;;;9.42;100.00
75157;BME280;63736;50.076;8.198;2022-12-24T02:12:56;98953.91;;;9.41;100.00
75157;BME280;63736;50.076;8.198;2022-12-24T02:15:22;98946.31;;;9.36;100.00
75157;BME280;63736;50.076;8.198;2022-12-24T02:18:15;98946.31;;;9.36;100.00
75157;BME280;63736;50.076;8.198;2022-12-24T02:24:16;98954.13;;;9.28;100.00
75157;BME280;63736;50.076;8.198;2022-12-24T02:27:21;98960.72;;;9.24;100.00
75157;BME280;63736;50.076;8.198;2022-12-24T02:30:00;98963.06;;;9.17;100.00
75157;BME280;63736;50.076;8.198;2022-12-24T02:32:35;98960.56;;;9.16;100.00
75157;BME280;63736;50.076;8.198;2022-12-24T02:35:12;98964.56;;;9.10;100.00
75157;BME280;63736;50.076;8.198;2022-12-24T02:37:49;98969.78;;;9.12;100.00
75157;BME280;63736;50.076;8.198;2022-12-24T02:40:27;98968.94;;;9.11;100.00
75157;BME280;63736;50.076;8.198;2022-12-24T02:42:57;98966.56;;;9.08;100.00
75157;BME280;63736;50.076;8.198;2022-12-24T02:45:28;98978.47;;;9.04;100.00
75157;BME280;63736;50.076;8.198;2022-12-24T02:47:55;98993.13;;;8.98;100.00
75157;BME280;63736;50.076;8.198;2022-12-24T02:50:21;98992.88;;;9.01;100.00
75157;BME280;63736;50.076;8.198;2022-12-24T02:52:47;98991.50;;;9.07;100.00
75157;BME280;63736;50.076;8.198;2022-12-24T02:55:19;99002.19;;;9.17;100.00
75157;BME280;63736;50.076;8.198;2022-12-24T02:58:06;98999.72;;;9.25;100.00
75157;BME280;63736;50.076;8.198;2022-12-24T03:01:02;98995.94;;;9.28;100.00
75157;BME280;63736;50.076;8.198;2022-12-24T03:06:55;99004.59;;;9.20;100.00
75157;BME280;63736;50.076;8.198;2022-12-24T03:09:26;99011.44;;;9.13;100.00
75157;BME280;63736;50.076;8.198;2022-12-24T03:12:01;99012.00;;;9.16;100.00
75157;BME280;63736;50.076;8.198;2022-12-24T03:14:29;99005.13;;;9.14;100.00
75157;BME280;63736;50.076;8.198;2022-12-24T03:16:57;99015.41;;;9.18;100.00
75157;BME280;63736;50.076;8.198;2022-12-24T03:19:24;99022.16;;;9.22;100.00
75157;BME280;63736;50.076;8.198;2022-12-24T03:21:50;99018.97;;;9.29;100.00
75157;BME280;63736;50.076;8.198;2022-12-24T03:24:18;99021.22;;;9.33;100.00
75157;BME280;63736;50.076;8.198;2022-12-24T03:26:44;99018.28;;;9.36;100.00
75157;BME280;63736;50.076;8.198;2022-12-24T03:29:11;99018.28;;;9.36;100.00
75157;BME280;63736;50.076;8.198;2022-12-24T03:31:48;99023.50;;;9.38;100.00
75157;BME280;63736;50.076;8.198;2022-12-24T03:34:15;99021.22;;;9.33;100.00
75157;BME280;63736;50.076;8.198;2022-12-24T03:36:41;99037.47;;;9.30;100.00
75157;BME280;63736;50.076;8.198;2022-12-24T03:39:07;99053.16;;;9.23;100.00
75157;BME280;63736;50.076;8.198;2022-12-24T03:41:34;99055.47;;;9.17;100.00
75157;BME280;63736;50.076;8.198;2022-12-24T03:44:00;99057.59;;;9.13;100.00
75157;BME280;63736;50.076;8.198;2022-12-24T03:46:25;99056.03;;;9.11;100.00
75157;BME280;63736;50.076;8.198;2022-12-24T03:48:50;99059.38;;;9.13;100.00
75157;BME280;63736;50.076;8.198;2022-12-24T03:51:17;99058.03;;;9.18;100.00
75157;BME280;63736;50.076;8.198;2022-12-24T03:53:43;99061.25;;;9.22;100.00
75157;BME280;63736;50.076;8.198;2022-12-24T03:56:08;99072.25;;;9.29;100.00
75157;BME280;63736;50.076;8.198;2022-12-24T03:58:34;99077.03;;;9.35;100.00
75157;BME280;63736;50.076;8.198;2022-12-24T04:00:59;99067.09;;;9.37;100.00
75157;BME280;63736;50.076;8.198;2022-12-24T04:03:24;99067.69;;;9.40;100.00
75157;BME280;63736;50.076;8.198;2022-12-24T04:06:14;99077.69;;;9.48;100.00
75157;BME280;63736;50.076;8.198;2022-12-24T04:08:40;99078.66;;;9.47;100.00
75157;BME280;63736;50.076;8.198;2022-12-24T04:11:07;99080.91;;;9.52;100.00
75157;BME280;63736;50.076;8.198;2022-12-24T04:13:33;99079.94;;;9.53;100.00
75157;BME280;63736;50.076;8.198;2022-12-24T04:16:04;99083.19;;;9.56;100.00
75157;BME280;63736;50.076;8.198;2022-12-24T04:18:30;99086.69;;;9.57;100.00
75157;BME280;63736;50.076;8.198;2022-12-24T04:20:55;99084.75;;;9.59;100.00
75157;BME280;63736;50.076;8.198;2022-12-24T04:23:21;99085.56;;;9.59;100.00
75157;BME280;63736;50.076;8.198;2022-12-24T04:25:47;99091.63;;;9.62;100.00
75157;BME280;63736;50.076;8.198;2022-12-24T04:28:13;99085.34;;;9.63;100.00
75157;BME280;63736;50.076;8.198;2022-12-24T04:30:38;99085.34;;;9.63;100.00
75157;BME280;63736;50.076;8.198;2022-12-24T04:33:04;99094.16;;;9.63;100.00
75157;BME280;63736;50.076;8.198;2022-12-24T04:35:29;99089.81;;;9.62;100.00
75157;BME280;63736;50.076;8.198;2022-12-24T04:37:55;99091.91;;;9.58;100.00
75157;BME280;63736;50.076;8.198;2022-12-24T04:40:20;99091.34;;;9.55;100.00
75157;BME280;63736;50.076;8.198;2022-12-24T04:42:45;99089.91;;;9.51;100.00
75157;BME280;63736;50.076;8.198;2022-12-24T04:45:11;99088.34;;;9.48;100.00
75157;BME280;63736;50.076;8.198;2022-12-24T04:47:36;99099.03;;;9.48;100.00
75157;BME280;63736;50.076;8.198;2022-12-24T04:50:01;99109.69;;;9.48;100.00
75157;BME280;63736;50.076;8.198;2022-12-24T04:52:27;99106.88;;;9.50;100.00
75157;BME280;63736;50.076;8.198;2022-12-24T04:54:52;99109.53;;;9.50;100.00
75157;BME280;63736;50.076;8.198;2022-12-24T04:57:18;99107.03;;;9.48;100.00
75157;BME280;63736;50.076;8.198;2022-12-24T04:59:43;99103.63;;;9.46;100.00
75157;BME280;63736;50.076;8.198;2022-12-24T05:02:08;99101.47;;;9.40;100.00
75157;BME280;63736;50.076;8.198;2022-12-24T05:04:34;99107.38;;;9.34;100.00
75157;BME280;63736;50.076;8.198;2022-12-24T05:06:59;99116.56;;;9.30;100.00
75157;BME280;63736;50.076;8.198;2022-12-24T05:09:24;99115.00;;;9.27;100.00
75157;BME280;63736;50.076;8.198;2022-12-24T05:11:50;99109.94;;;9.24;100.00
75157;BME280;63736;50.076;8.198;2022-12-24T05:14:15;99104.63;;;9.24;100.00
75157;BME280;63736;50.076;8.198;2022-12-24T05:16:40;99122.31;;;9.25;100.00
75157;BME280;63736;50.076;8.198;2022-12-24T05:19:05;99114.03;;;9.28;100.00
75157;BME280;63736;50.076;8.198;2022-12-24T05:21:31;99112.25;;;9.29;100.00
75157;BME280;63736;50.076;8.198;2022-12-24T05:23:56;99107.28;;;9.24;100.00
75157;BME280;63736;50.076;8.198;2022-12-24T05:26:43;99101.13;;;9.23;100.00
75157;BME280;63736;50.076;8.198;2022-12-24T05:29:10;99112.03;;;9.20;100.00
75157;BME280;63736;50.076;8.198;2022-12-24T05:31:39;99100.78;;;9.17;100.00
75157;BME280;63736;50.076;8.198;2022-12-24T05:34:06;99104.53;;;9.14;100.00
75157;BME280;63736;50.076;8.198;2022-12-24T05:36:31;99103.00;;;9.12;100.00
75157;BME280;63736;50.076;8.198;2022-12-24T05:38:57;99101.56;;;9.07;100.00
75157;BME280;63736;50.076;8.198;2022-12-24T05:41:23;99108.13;;;9.03;100.00
75157;BME280;63736;50.076;8.198;2022-12-24T05:43:49;99126.91;;;9.02;100.00
75157;BME280;63736;50.076;8.198;2022-12-24T05:46:16;99131.41;;;9.01;100.00
75157;BME280;63736;50.076;8.198;2022-12-24T05:48:43;99130.69;;;8.99;100.00
75157;BME280;63736;50.076;8.198;2022-12-24T05:51:10;99127.88;;;9.01;100.00
75157;BME280;63736;50.076;8.198;2022-12-24T05:53:36;99127.88;;;9.01;100.00
75157;BME280;63736;50.076;8.198;2022-12-24T05:56:04;99128.47;;;9.04;100.00
75157;BME280;63736;50.076;8.198;2022-12-24T05:58:30;99126.66;;;9.05;100.00
75157;BME280;63736;50.076;8.198;2022-12-24T06:00:55;99129.22;;;9.06;100.00
75157;BME280;63736;50.076;8.198;2022-12-24T06:03:20;99129.31;;;9.05;100.00
75157;BME280;63736;50.076;8.198;2022-12-24T06:05:46;99137.44;;;9.03;100.00
75157;BME280;63736;50.076;8.198;2022-12-24T06:08:11;99145.44;;;9.03;100.00
75157;BME280;63736;50.076;8.198;2022-12-24T06:10:36;99132.25;;;9.02;100.00
75157;BME280;63736;50.076;8.198;2022-12-24T06:13:01;99126.91;;;9.02;100.00
75157;BME280;63736;50.076;8.198;2022-12-24T06:15:27;99137.06;;;9.08;100.00
75157;BME280;63736;50.076;8.198;2022-12-24T06:17:52;99141.16;;;9.12;100.00
75157;BME280;63736;50.076;8.198;2022-12-24T06:20:17;99143.41;;;9.17;100.00
75157;BME280;63736;50.076;8.198;2022-12-24T06:22:43;99149.47;;;9.19;100.00
75157;BME280;63736;50.076;8.198;2022-12-24T06:25:08;99151.31;;;9.18;100.00
75157;BME280;63736;50.076;8.198;2022-12-24T06:27:33;99147.91;;;9.16;100.00
75157;BME280;63736;50.076;8.198;2022-12-24T06:29:58;99142.13;;;9.11;100.00
75157;BME280;63736;50.076;8.198;2022-12-24T06:32:24;99152.91;;;9.09;100.00
75157;BME280;63736;50.076;8.198;2022-12-24T06:34:49;99154.75;;;9.09;100.00
75157;BME280;63736;50.076;8.198;2022-12-24T06:37:15;99152.09;;;9.09;100.00
75157;BME280;63736;50.076;8.198;2022-12-24T06:39:44;99167.41;;;9.17;100.00
75157;BME280;63736;50.076;8.198;2022-12-24T06:42:10;99159.88;;;9.22;100.00
75157;BME280;63736;50.076;8.198;2022-12-24T06:44:35;99162.16;;;9.26;100.00
75157;BME280;63736;50.076;8.198;2022-12-24T06:47:00;99160.22;;;9.29;100.00
75157;BME280;63736;50.076;8.198;2022-12-24T06:49:25;99159.13;;;9.31;100.00
75157;BME280;63736;50.076;8.198;2022-12-24T06:51:51;99162.59;;;9.32;100.00
75157;BME280;63736;50.076;8.198;2022-12-24T06:54:16;99167.09;;;9.31;100.00
75157;BME280;63736;50.076;8.198;2022-12-24T06:56:41;99180.44;;;9.31;100.00
75157;BME280;63736;50.076;8.198;2022-12-24T06:59:07;99175.66;;;9.35;100.00
75157;BME280;63736;50.076;8.198;2022-12-24T07:01:32;99176.41;;;9.37;100.00
75157;BME280;63736;50.076;8.198;2022-12-24T07:03:57;99181.44;;;9.40;100.00
75157;BME280;63736;50.076;8.198;2022-12-24T07:06:25;99188.81;;;9.48;100.00
75157;BME280;63736;50.076;8.198;2022-12-24T07:08:51;99172.09;;;9.46;100.00
75157;BME280;63736;50.076;8.198;2022-12-24T07:11:17;99181.41;;;9.51;100.00
75157;BME280;63736;50.076;8.198;2022-12-24T07:13:42;99187.56;;;9.52;100.00
75157;BME280;63736;50.076;8.198;2022-12-24T07:16:07;99198.13;;;9.53;100.00
75157;BME280;63736;50.076;8.198;2022-12-24T07:18:33;99199.69;;;9.56;100.00
75157;BME280;63736;50.076;8.198;2022-12-24T07:20:58;99201.25;;;9.58;100.00
75157;BME280;63736;50.076;8.198;2022-12-24T07:23:24;99209.09;;;9.60;100.00
75157;BME280;63736;50.076;8.198;2022-12-24T07:25:49;99208.00;;;9.63;100.00
75157;BME280;63736;50.076;8.198;2022-12-24T07:28:15;99205.94;;;9.66;100.00
75157;BME280;63736;50.076;8.198;2022-12-24T07:30:40;99212.78;;;9.69;100.00
75157;BME280;63736;50.076;8.198;2022-12-24T07:33:05;99225.00;;;9.71;100.00
75157;BME280;63736;50.076;8.198;2022-12-24T07:35:32;99223.06;;;9.73;100.00
75157;BME280;63736;50.076;8.198;2022-12-24T07:37:57;99230.81;;;9.76;100.00
75157;BME280;63736;50.076;8.198;2022-12-24T07:40:23;99233.22;;;9.80;100.00
75157;BME280;63736;50.076;8.198;2022-12-24T07:42:48;99232.38;;;9.79;100.00
75157;BME280;63736;50.076;8.198;2022-12-24T07:45:13;99239.16;;;9.83;100.00
75157;BME280;63736;50.076;8.198;2022-12-24T07:47:39;99248.81;;;9.84;100.00
75157;BME280;63736;50.076;8.198;2022-12-24T07:50:05;99239.72;;;9.87;100.00
75157;BME280;63736;50.076;8.198;2022-12-24T07:52:30;99238.88;;;9.86;100.00
75157;BME280;63736;50.076;8.198;2022-12-24T07:54:55;99252.06;;;9.88;100.00
75157;BME280;63736;50.076;8.198;2022-12-24T07:57:21;99253.63;;;9.90;100.00
75157;BME280;63736;50.076;8.198;2022-12-24T07:59:46;99250.84;;;9.92;100.00
75157;BME280;63736;50.076;8.198;2022-12-24T08:02:11;99260.81;;;9.90;100.00
75157;BME280;63736;50.076;8.198;2022-12-24T08:04:36;99264.19;;;9.92;100.00
75157;BME280;63736;50.076;8.198;2022-12-24T08:07:03;99269.50;;;9.92;100.00
75157;BME280;63736;50.076;8.198;2022-12-24T08:09:30;99280.06;;;9.94;100.00
75157;BME280;63736;50.076;8.198;2022-12-24T08:11:56;99276.69;;;9.91;100.00
75157;BME280;63736;50.076;8.198;2022-12-24T08:14:21;99278.53;;;9.91;100.00
75157;BME280;63736;50.076;8.198;2022-12-24T08:16:46;99287.63;;;9.88;100.00
75157;BME280;63736;50.076;8.198;2022-12-24T08:19:12;99282.53;;;9.85;100.00
75157;BME280;63736;50.076;8.198;2022-12-24T08:21:37;99266.81;;;9.82;100.00
75157;BME280;63736;50.076;8.198;2022-12-24T08:24:02;99280.28;;;9.81;100.00
75157;BME280;63736;50.076;8.198;2022-12-24T08:26:28;99292.75;;;9.80;100.00
75157;BME280;63736;50.076;8.198;2022-12-24T08:28:53;99290.94;;;9.81;100.00
75157;BME280;63736;50.076;8.198;2022-12-24T08:31:18;99292.50;;;9.83;100.00
75157;BME280;63736;50.076;8.198;2022-12-24T08:33:44;99291.41;;;9.86;100.00
75157;BME280;63736;50.076;8.198;2022-12-24T08:36:09;99299.28;;;9.87;100.00
75157;BME280;63736;50.076;8.198;2022-12-24T08:38:34;99303.50;;;9.90;100.00
75157;BME280;63736;50.076;8.198;2022-12-24T08:40:59;99306.03;;;9.91;100.00
75157;BME280;63736;50.076;8.198;2022-12-24T08:43:26;99309.66;;;9.90;100.00
75157;BME280;63736;50.076;8.198;2022-12-24T08:45:51;99316.69;;;9.91;100.00
75157;BME280;63736;50.076;8.198;2022-12-24T08:48:17;99330.88;;;9.92;100.00
75157;BME280;63736;50.076;8.198;2022-12-24T08:50:43;99322.78;;;9.94;100.00
75157;BME280;63736;50.076;8.198;2022-12-24T08:53:09;99323.75;;;9.92;100.00
75157;BME280;63736;50.076;8.198;2022-12-24T08:55:35;99323.97;;;9.89;100.00
75157;BME280;63736;50.076;8.198;2022-12-24T08:58:00;99326.78;;;9.88;100.00
75157;BME280;63736;50.076;8.198;2022-12-24T09:00:26;99323.28;;;9.87;100.00
75157;BME280;63736;50.076;8.198;2022-12-24T09:02:51;99333.34;;;9.84;100.00
75157;BME280;63736;50.076;8.198;2022-12-24T09:05:17;99341.09;;;9.87;100.00
75157;BME280;63736;50.076;8.198;2022-12-24T09:07:42;99340.84;;;9.90;100.00
75157;BME280;63736;50.076;8.198;2022-12-24T09:10:08;99337.91;;;9.93;100.00
75157;BME280;63736;50.076;8.198;2022-12-24T09:12:34;99348.34;;;9.96;100.00
75157;BME280;63736;50.076;8.198;2022-12-24T09:14:59;99350.00;;;9.97;100.00
75157;BME280;63736;50.076;8.198;2022-12-24T09:17:24;99349.78;;;10.00;100.00
75157;BME280;63736;50.076;8.198;2022-12-24T09:19:49;99354.69;;;10.05;100.00
75157;BME280;63736;50.076;8.198;2022-12-24T09:22:15;99358.81;;;10.09;100.00
75157;BME280;63736;50.076;8.198;2022-12-24T09:24:40;99357.00;;;10.09;100.00
75157;BME280;63736;50.076;8.198;2022-12-24T09:27:05;99348.72;;;10.13;100.00
75157;BME280;63736;50.076;8.198;2022-12-24T09:29:31;99358.50;;;10.23;100.00
75157;BME280;63736;50.076;8.198;2022-12-24T09:31:57;99361.34;;;10.32;100.00
75157;BME280;63736;50.076;8.198;2022-12-24T09:34:23;99358.06;;;10.39;100.00
75157;BME280;63736;50.076;8.198;2022-12-24T09:36:49;99368.78;;;10.49;100.00
75157;BME280;63736;50.076;8.198;2022-12-24T09:39:16;99369.13;;;10.56;100.00
75157;BME280;63736;50.076;8.198;2022-12-24T09:46:58;99380.31;;;10.50;100.00
75157;BME280;63736;50.076;8.198;2022-12-24T09:49:35;99384.34;;;10.65;100.00
75157;BME280;63736;50.076;8.198;2022-12-24T09:52:06;99381.91;;;10.83;100.00
75157;BME280;63736;50.076;8.198;2022-12-24T09:54:38;99373.94;;;11.03;100.00
75157;BME280;63736;50.076;8.198;2022-12-24T09:57:14;99386.38;;;11.23;100.00
75157;BME280;63736;50.076;8.198;2022-12-24T09:59:42;99373.75;;;11.35;100.00
75157;BME280;63736;50.076;8.198;2022-12-24T10:02:14;99391.22;;;11.49;100.00
75157;BME280;63736;50.076;8.198;2022-12-24T10:04:42;99393.63;;;11.52;100.00
75157;BME280;63736;50.076;8.198;2022-12-24T10:07:30;99398.56;;;11.57;100.00
75157;BME280;63736;50.076;8.198;2022-12-24T10:16:13;99413.47;;;11.60;100.00
75157;BME280;63736;50.076;8.198;2022-12-24T10:24:21;99407.88;;;11.82;100.00
75157;BME280;63736;50.076;8.198;2022-12-24T10:27:22;99402.66;;;11.90;100.00
75157;BME280;63736;50.076;8.198;2022-12-24T10:29:53;99401.53;;;11.93;100.00
75157;BME280;63736;50.076;8.198;2022-12-24T10:32:26;99399.63;;;11.95;100.00
75157;BME280;63736;50.076;8.198;2022-12-24T10:34:58;99397.50;;;12.09;100.00
75157;BME280;63736;50.076;8.198;2022-12-24T10:37:26;99409.00;;;12.29;100.00
75157;BME280;63736;50.076;8.198;2022-12-24T10:39:53;99412.22;;;12.52;100.00
75157;BME280;63736;50.076;8.198;2022-12-24T10:42:20;99403.16;;;12.72;100.00
75157;BME280;63736;50.076;8.198;2022-12-24T10:44:59;99401.94;;;12.95;100.00
75157;BME280;63736;50.076;8.198;2022-12-24T10:47:26;99403.47;;;13.07;100.00
75157;BME280;63736;50.076;8.198;2022-12-24T10:52:38;99405.50;;;13.51;100.00
75157;BME280;63736;50.076;8.198;2022-12-24T10:55:06;99403.44;;;13.63;100.00
75157;BME280;63736;50.076;8.198;2022-12-24T10:57:32;99409.19;;;13.68;100.00
75157;BME280;63736;50.076;8.198;2022-12-24T10:59:58;99409.13;;;13.60;100.00
75157;BME280;63736;50.076;8.198;2022-12-24T11:02:29;99408.81;;;13.45;100.00
75157;BME280;63736;50.076;8.198;2022-12-24T11:04:56;99416.47;;;13.30;100.00
75157;BME280;63736;50.076;8.198;2022-12-24T11:07:24;99415.97;;;13.16;100.00
75157;BME280;63736;50.076;8.198;2022-12-24T11:10:02;99419.66;;;13.05;100.00
75157;BME280;63736;50.076;8.198;2022-12-24T11:12:36;99415.19;;;12.96;100.00
75157;BME280;63736;50.076;8.198;2022-12-24T11:15:15;99406.22;;;12.87;100.00
75157;BME280;63736;50.076;8.198;2022-12-24T11:17:42;99415.97;;;12.79;100.00
75157;BME280;63736;50.076;8.198;2022-12-24T11:20:17;99424.75;;;12.71;100.00
75157;BME280;63736;50.076;8.198;2022-12-24T11:22:48;99422.47;;;12.66;100.00
75157;BME280;63736;50.076;8.198;2022-12-24T11:25:20;99426.28;;;12.64;100.00
75157;BME280;63736;50.076;8.198;2022-12-24T11:27:47;99424.75;;;12.61;100.00
75157;BME280;63736;50.076;8.198;2022-12-24T11:33:18;99421.34;;;12.69;100.00
75157;BME280;63736;50.076;8.198;2022-12-24T11:35:43;99415.56;;;12.73;100.00
75157;BME280;63736;50.076;8.198;2022-12-24T11:38:11;99419.06;;;12.74;100.00
75157;BME280;63736;50.076;8.198;2022-12-24T11:40:48;99424.84;;;12.89;100.00
75157;BME280;63736;50.076;8.198;2022-12-24T11:43:20;99421.81;;;13.02;100.00
75157;BME280;63736;50.076;8.198;2022-12-24T11:45:54;99420.69;;;13.04;100.00
75157;BME280;63736;50.076;8.198;2022-12-24T11:48:33;99419.25;;;13.00;100.00
75157;BME280;63736;50.076;8.198;2022-12-24T11:51:01;99417.88;;;12.96;100.00
75157;BME280;63736;50.076;8.198;2022-12-24T11:53:30;99413.50;;;12.95;100.00
75157;BME280;63736;50.076;8.198;2022-12-24T11:55:59;99414.50;;;12.94;100.00
75157;BME280;63736;50.076;8.198;2022-12-24T11:58:40;99410.53;;;12.98;100.00
75157;BME280;63736;50.076;8.198;2022-12-24T12:01:21;99395.28;;;12.99;100.00
75157;BME280;63736;50.076;8.198;2022-12-24T12:03:59;99408.84;;;12.97;100.00
75157;BME280;63736;50.076;8.198;2022-12-24T12:09:12;99406.16;;;12.97;100.00
75157;BME280;63736;50.076;8.198;2022-12-24T12:11:41;99408.41;;;13.02;100.00
75157;BME280;63736;50.076;8.198;2022-12-24T12:14:19;99416.31;;;13.03;100.00
75157;BME280;63736;50.076;8.198;2022-12-24T12:16:59;99418.00;;;13.04;100.00
75157;BME280;63736;50.076;8.198;2022-12-24T12:19:31;99412.75;;;13.03;100.00
75157;BME280;63736;50.076;8.198;2022-12-24T12:22:03;99413.22;;;12.98;100.00
75157;BME280;63736;50.076;8.198;2022-12-24T12:24:35;99409.16;;;12.94;100.00
75157;BME280;63736;50.076;8.198;2022-12-24T12:27:23;99409.56;;;12.89;100.00
75157;BME280;63736;50.076;8.198;2022-12-24T12:29:57;99410.31;;;12.82;100.00
75157;BME280;63736;50.076;8.198;2022-12-24T12:32:40;99408.50;;;12.72;100.00
75157;BME280;63736;50.076;8.198;2022-12-24T12:38:18;99422.22;;;12.60;100.00
75157;BME280;63736;50.076;8.198;2022-12-24T12:40:44;99428.44;;;12.50;100.00
75157;BME280;63736;50.076;8.198;2022-12-24T12:48:47;99421.00;;;12.34;100.00
75157;BME280;63736;50.076;8.198;2022-12-24T12:51:21;99424.53;;;12.35;100.00
75157;BME280;63736;50.076;8.198;2022-12-24T12:56:43;99429.59;;;12.18;100.00
75157;BME280;63736;50.076;8.198;2022-12-24T12:59:30;99418.19;;;12.06;100.00
75157;BME280;63736;50.076;8.198;2022-12-24T13:02:24;99427.34;;;11.94;100.00
75157;BME280;63736;50.076;8.198;2022-12-24T13:07:54;99421.81;;;11.76;100.00
75157;BME280;63736;50.076;8.198;2022-12-24T13:10:51;99431.81;;;11.74;100.00
75157;BME280;63736;50.076;8.198;2022-12-24T13:21:48;99439.41;;;11.88;100.00
75157;BME280;63736;50.076;8.198;2022-12-24T13:24:20;99442.72;;;12.02;100.00
75157;BME280;63736;50.076;8.198;2022-12-24T13:27:01;99427.78;;;12.19;100.00
75157;BME280;63736;50.076;8.198;2022-12-24T13:29:30;99430.16;;;12.22;100.00
75157;BME280;63736;50.076;8.198;2022-12-24T13:32:43;99422.28;;;12.20;100.00
75157;BME280;63736;50.076;8.198;2022-12-24T13:37:45;99437.63;;;11.99;100.00
75157;BME280;63736;50.076;8.198;2022-12-24T13:40:16;99434.50;;;11.84;100.00
75157;BME280;63736;50.076;8.198;2022-12-24T13:48:33;99431.03;;;11.43;100.00
75157;BME280;63736;50.076;8.198;2022-12-24T13:51:00;99434.09;;;11.28;100.00
75157;BME280;63736;50.076;8.198;2022-12-24T13:53:43;99434.91;;;11.19;100.00
75157;BME280;63736;50.076;8.198;2022-12-24T13:58:40;99447.69;;;11.15;100.00
75157;BME280;63736;50.076;8.198;2022-12-24T14:01:12;99441.81;;;11.21;100.00
75157;BME280;63736;50.076;8.198;2022-12-24T14:03:50;99446.75;;;11.26;100.00
75157;BME280;63736;50.076;8.198;2022-12-24T14:08:46;99448.59;;;11.26;100.00
75157;BME280;63736;50.076;8.198;2022-12-24T14:11:15;99450.44;;;11.25;100.00
75157;BME280;63736;50.076;8.198;2022-12-24T14:18:43;99466.47;;;11.25;100.00
75157;BME280;63736;50.076;8.198;2022-12-24T14:21:34;99465.47;;;11.26;100.00
75157;BME280;63736;50.076;8.198;2022-12-24T14:24:12;99469.84;;;11.27;100.00